createdAt,value
2023-03-03T00:00:49.143Z,16.90
2023-03-03T00:03:20.350Z,15.32
2023-03-03T00:05:48.981Z,15.77
2023-03-03T00:08:21.332Z,15.38
2023-03-03T00:10:50.224Z,17.60
2023-03-03T00:13:20.007Z,16.13
2023-03-03T00:15:49.333Z,17.05
2023-03-03T00:18:27.997Z,15.57
2023-03-03T00:20:57.946Z,15.38
2023-03-03T00:23:33.339Z,17.65
2023-03-03T00:26:01.303Z,16.73
2023-03-03T00:28:31.554Z,17.85
2023-03-03T00:31:02.537Z,16.92
2023-03-03T00:33:39.783Z,17.48
2023-03-03T00:36:29.107Z,17.38
2023-03-03T00:39:14.205Z,18.20
2023-03-03T00:41:42.591Z,18.05
2023-03-03T00:44:41.630Z,16.30
2023-03-03T00:47:26.230Z,17.77
2023-03-03T00:49:55.539Z,17.70
2023-03-03T00:52:29.245Z,17.20
2023-03-03T00:54:59.506Z,17.08
2023-03-03T00:57:28.150Z,18.38
2023-03-03T00:59:56.962Z,17.10
2023-03-03T01:02:25.221Z,17.38
2023-03-03T01:04:57.382Z,18.50
2023-03-03T01:07:26.010Z,16.25
2023-03-03T01:09:54.523Z,16.50
2023-03-03T01:12:25.922Z,17.40
2023-03-03T01:14:55.504Z,16.25
2023-03-03T01:17:23.971Z,17.13
2023-03-03T01:19:52.780Z,15.50
2023-03-03T01:22:20.818Z,17.27
2023-03-03T01:24:52.881Z,16.15
2023-03-03T01:27:23.004Z,16.70
2023-03-03T01:29:52.312Z,16.20
2023-03-03T01:32:21.361Z,18.45
2023-03-03T01:34:51.044Z,18.15
2023-03-03T01:37:19.056Z,17.02
2023-03-03T01:39:50.909Z,17.02
2023-03-03T01:42:20.232Z,17.52
2023-03-03T01:44:49.485Z,16.63
2023-03-03T01:47:22.656Z,18.30
2023-03-03T01:49:57.230Z,18.45
2023-03-03T01:52:31.972Z,17.00
2023-03-03T01:55:03.958Z,17.02
2023-03-03T01:57:35.064Z,15.98
2023-03-03T02:00:04.118Z,17.15
2023-03-03T02:02:34.000Z,20.95
2023-03-03T02:05:02.650Z,18.55
2023-03-03T02:07:33.158Z,21.05
2023-03-03T02:10:07.354Z,19.23
2023-03-03T02:12:39.125Z,23.02
2023-03-03T02:15:18.298Z,20.08
2023-03-03T02:17:49.614Z,21.13
2023-03-03T02:20:24.110Z,21.77
2023-03-03T02:22:59.721Z,22.63
2023-03-03T02:25:35.463Z,22.70
2023-03-03T02:28:05.539Z,22.73
2023-03-03T02:30:39.850Z,21.88
2023-03-03T02:33:08.800Z,21.05
2023-03-03T02:35:39.450Z,20.35
2023-03-03T02:38:23.126Z,18.52
2023-03-03T02:41:00.816Z,21.98
2023-03-03T02:43:37.413Z,21.02
2023-03-03T02:46:05.762Z,23.02
2023-03-03T02:48:34.235Z,21.90
2023-03-03T02:51:02.667Z,26.30
2023-03-03T02:53:30.817Z,26.02
2023-03-03T02:55:58.986Z,28.67
2023-03-03T02:58:27.457Z,28.85
2023-03-03T03:00:57.245Z,30.02
2023-03-03T03:03:25.468Z,28.65
2023-03-03T03:05:53.932Z,30.38
2023-03-03T03:08:21.916Z,30.50
2023-03-03T03:10:50.293Z,27.27
2023-03-03T03:13:19.292Z,28.35
2023-03-03T03:15:47.616Z,31.58
2023-03-03T03:18:18.590Z,30.02
2023-03-03T03:20:48.543Z,28.10
2023-03-03T03:23:17.621Z,30.35
2023-03-03T03:25:47.124Z,28.40
2023-03-03T03:28:16.689Z,29.48
2023-03-03T03:30:45.799Z,30.50
2023-03-03T03:33:14.552Z,29.70
2023-03-03T03:35:46.157Z,30.95
2023-03-03T03:38:14.504Z,28.35
2023-03-03T03:40:42.902Z,28.73
2023-03-03T03:43:11.556Z,29.13
2023-03-03T03:45:39.649Z,28.17
2023-03-03T03:48:08.046Z,27.25
2023-03-03T03:50:36.719Z,28.63
2023-03-03T03:53:06.740Z,27.25
2023-03-03T03:55:36.263Z,29.63
2023-03-03T03:58:04.547Z,29.58
2023-03-03T04:00:32.828Z,29.35
2023-03-03T04:03:01.409Z,29.08
2023-03-03T04:05:29.505Z,27.85
2023-03-03T04:07:57.634Z,28.20
2023-03-03T04:10:27.469Z,29.33
2023-03-03T04:12:55.430Z,29.17
2023-03-03T04:15:23.565Z,28.75
2023-03-03T04:17:52.192Z,27.83
2023-03-03T04:20:20.872Z,27.58
2023-03-03T04:22:49.466Z,28.83
2023-03-03T04:25:18.979Z,27.90
2023-03-03T04:27:48.477Z,27.83
2023-03-03T04:30:17.337Z,28.42
2023-03-03T04:32:46.000Z,28.60
2023-03-03T04:35:14.538Z,27.30
2023-03-03T04:37:42.567Z,28.50
2023-03-03T04:40:12.147Z,30.38
2023-03-03T04:42:40.181Z,31.38
2023-03-03T04:45:11.295Z,29.65
2023-03-03T04:47:40.558Z,28.35
2023-03-03T04:50:09.722Z,30.70
2023-03-03T04:52:38.199Z,31.30
2023-03-03T04:55:10.335Z,31.20
2023-03-03T04:57:38.823Z,30.63
2023-03-03T05:00:10.240Z,29.70
2023-03-03T05:02:38.335Z,32.05
2023-03-03T05:05:07.203Z,31.35
2023-03-03T05:07:36.040Z,31.25
2023-03-03T05:10:04.364Z,30.60
2023-03-03T05:12:32.730Z,29.92
2023-03-03T05:15:02.031Z,29.52
2023-03-03T05:17:31.738Z,32.22
2023-03-03T05:20:00.013Z,33.00
2023-03-03T05:22:28.894Z,30.58
2023-03-03T05:24:57.803Z,31.45
2023-03-03T05:27:26.170Z,30.67
2023-03-03T05:29:54.830Z,31.77
2023-03-03T05:32:23.172Z,34.47
2023-03-03T05:34:53.230Z,28.45
2023-03-03T05:37:21.982Z,30.15
2023-03-03T05:39:50.151Z,32.42
2023-03-03T05:42:18.484Z,34.20
2023-03-03T05:44:47.138Z,33.42
2023-03-03T05:47:15.264Z,30.95
2023-03-03T05:49:43.560Z,33.38
2023-03-03T05:52:13.842Z,35.88
2023-03-03T05:54:42.017Z,32.13
2023-03-03T05:57:10.284Z,33.00
2023-03-03T05:59:39.256Z,33.55
2023-03-03T06:02:07.981Z,32.17
2023-03-03T06:04:36.941Z,29.17
2023-03-03T06:07:05.272Z,30.17
2023-03-03T06:09:35.375Z,28.40
2023-03-03T06:12:04.034Z,28.75
2023-03-03T06:14:32.439Z,30.73
2023-03-03T06:17:00.788Z,27.95
2023-03-03T06:19:30.792Z,29.90
2023-03-03T06:22:00.880Z,31.98
2023-03-03T06:24:31.885Z,31.48
2023-03-03T06:27:02.863Z,30.42
2023-03-03T06:29:31.912Z,28.90
2023-03-03T06:32:01.079Z,26.80
2023-03-03T06:34:30.034Z,29.92
2023-03-03T06:37:01.435Z,31.60
2023-03-03T06:39:33.296Z,28.10
2023-03-03T06:42:03.535Z,28.90
2023-03-03T06:44:31.844Z,27.67
2023-03-03T06:47:00.330Z,26.52
2023-03-03T06:49:29.487Z,28.20
2023-03-03T06:52:00.247Z,26.97
2023-03-03T06:59:44.919Z,22.77
2023-03-03T07:02:18.417Z,23.50
2023-03-03T07:04:48.128Z,20.80
2023-03-03T07:07:20.710Z,21.27
2023-03-03T07:09:51.693Z,20.23
2023-03-03T07:12:23.804Z,21.40
2023-03-03T07:14:59.964Z,21.60
2023-03-03T07:17:28.559Z,18.43
2023-03-03T07:19:57.670Z,17.90
2023-03-03T07:22:30.486Z,18.80
2023-03-03T07:25:04.105Z,17.67
2023-03-03T07:27:33.528Z,17.50
2023-03-03T07:30:23.830Z,17.70
2023-03-03T07:32:57.660Z,18.10
2023-03-03T07:35:40.809Z,15.47
2023-03-03T07:38:31.533Z,16.30
2023-03-03T07:41:05.221Z,17.23
2023-03-03T07:43:38.515Z,17.57
2023-03-03T07:46:33.772Z,16.93
2023-03-03T07:49:03.650Z,17.40
2023-03-03T07:51:43.016Z,16.50
2023-03-03T07:54:32.831Z,17.03
2023-03-03T07:57:10.252Z,15.87
2023-03-03T07:59:41.651Z,16.40
2023-03-03T08:02:40.734Z,16.50
2023-03-03T08:05:36.204Z,15.53
2023-03-03T08:08:19.391Z,16.67
2023-03-03T08:10:50.501Z,15.80
2023-03-03T08:13:22.392Z,16.40
2023-03-03T08:15:54.061Z,16.90
2023-03-03T08:18:32.875Z,16.47
2023-03-03T08:21:04.611Z,15.50
2023-03-03T08:23:33.959Z,16.00
2023-03-03T08:26:03.013Z,15.27
2023-03-03T08:28:31.802Z,16.00
2023-03-03T08:31:15.337Z,15.53
2023-03-03T08:33:50.287Z,16.00
2023-03-03T08:36:19.365Z,16.77
2023-03-03T08:38:48.161Z,15.10
2023-03-03T08:41:17.454Z,16.03
2023-03-03T08:43:46.982Z,17.00
2023-03-03T08:46:15.406Z,15.50
2023-03-03T08:48:43.768Z,16.47
2023-03-03T08:51:13.925Z,16.00
2023-03-03T08:53:43.561Z,15.33
2023-03-03T08:56:11.914Z,14.10
2023-03-03T08:58:49.891Z,14.20
2023-03-03T09:01:28.488Z,14.20
2023-03-03T09:03:57.760Z,14.87
2023-03-03T09:06:28.074Z,15.37
2023-03-03T09:08:56.526Z,14.63
2023-03-03T09:11:29.095Z,15.70
2023-03-03T09:14:04.446Z,15.40
2023-03-03T09:16:49.439Z,16.27
2023-03-03T09:19:23.110Z,15.83
2023-03-03T09:21:55.412Z,15.50
2023-03-03T09:24:28.595Z,17.63
2023-03-03T09:27:00.183Z,16.03
2023-03-03T09:29:30.529Z,14.40
2023-03-03T09:32:01.590Z,15.77
2023-03-03T09:34:41.379Z,15.30
2023-03-03T09:37:24.399Z,15.30
2023-03-03T09:39:53.910Z,16.40
2023-03-03T09:42:57.439Z,15.23
2023-03-03T09:45:41.119Z,17.27
2023-03-03T09:48:31.238Z,15.10
2023-03-03T09:51:14.834Z,16.97
2023-03-03T09:53:57.276Z,14.07
2023-03-03T09:56:31.521Z,15.80
2023-03-03T09:59:14.198Z,19.23
2023-03-03T10:01:56.642Z,15.60
2023-03-03T10:04:42.482Z,15.60
2023-03-03T10:07:34.021Z,16.73
2023-03-03T10:10:34.308Z,15.63
2023-03-03T10:13:18.018Z,15.40
2023-03-03T10:15:57.937Z,15.77
2023-03-03T10:18:33.821Z,14.60
2023-03-03T10:21:11.660Z,15.00
2023-03-03T10:23:56.862Z,14.23
2023-03-03T10:27:11.939Z,15.10
2023-03-03T10:29:49.590Z,15.00
2023-03-03T10:32:49.377Z,14.50
2023-03-03T10:35:31.401Z,14.90
2023-03-03T10:38:19.762Z,16.83
2023-03-03T10:40:56.506Z,15.83
2023-03-03T10:43:42.494Z,14.17
2023-03-03T10:46:53.380Z,13.13
2023-03-03T10:49:40.379Z,12.93
2023-03-03T10:52:24.253Z,13.03
2023-03-03T10:55:16.593Z,13.47
2023-03-03T10:57:54.080Z,12.70
2023-03-03T11:00:30.802Z,11.67
2023-03-03T11:03:30.440Z,12.00
2023-03-03T11:06:02.613Z,11.37
2023-03-03T11:08:37.773Z,13.20
2023-03-03T11:11:16.541Z,13.70
2023-03-03T11:13:53.579Z,11.60
2023-03-03T11:16:49.645Z,12.87
2023-03-03T11:19:50.761Z,11.30
2023-03-03T11:22:35.726Z,12.10
2023-03-03T11:25:17.325Z,10.57
2023-03-03T11:28:03.078Z,11.80
2023-03-03T11:30:43.897Z,12.17
2023-03-03T11:33:20.013Z,13.27
2023-03-03T11:35:53.353Z,12.63
2023-03-03T11:38:38.576Z,11.97
2023-03-03T11:41:15.148Z,11.20
2023-03-03T11:43:49.490Z,12.47
2023-03-03T11:46:24.236Z,11.77
2023-03-03T11:49:03.221Z,11.90
2023-03-03T11:51:40.642Z,10.33
2023-03-03T11:54:17.910Z,12.23
2023-03-03T11:56:48.545Z,9.87
2023-03-03T12:00:09.023Z,10.63
2023-03-03T12:03:13.017Z,11.60
2023-03-03T12:05:53.428Z,9.83
2023-03-03T12:09:00.822Z,10.70
2023-03-03T12:11:33.484Z,11.43
2023-03-03T12:14:09.836Z,10.40
2023-03-03T12:16:52.096Z,10.33
2023-03-03T12:19:30.684Z,9.70
2023-03-03T12:22:23.579Z,10.40
2023-03-03T12:25:10.125Z,11.07
2023-03-03T12:27:48.342Z,9.90
2023-03-03T12:30:29.163Z,10.50
2023-03-03T12:33:14.178Z,10.00
2023-03-03T12:35:51.088Z,9.90
2023-03-03T12:38:36.452Z,8.67
2023-03-03T12:41:11.879Z,9.60
2023-03-03T12:43:57.385Z,9.90
2023-03-03T12:46:35.651Z,10.23
2023-03-03T12:49:06.514Z,10.10
2023-03-03T12:51:50.250Z,9.17
2023-03-03T12:54:43.827Z,10.90
2023-03-03T12:57:23.571Z,9.10
2023-03-03T13:00:05.975Z,9.73
2023-03-03T13:02:46.551Z,11.87
2023-03-03T13:05:30.992Z,9.10
2023-03-03T13:08:31.950Z,8.77
2023-03-03T13:11:23.353Z,9.57
2023-03-03T13:13:58.400Z,8.17
2023-03-03T13:16:41.038Z,10.27
2023-03-03T13:19:16.223Z,10.10
2023-03-03T13:21:51.584Z,10.17
2023-03-03T13:24:25.410Z,8.73
2023-03-03T13:27:00.339Z,9.00
2023-03-03T13:29:31.888Z,8.73
2023-03-03T13:32:06.654Z,9.13
2023-03-03T13:34:44.000Z,8.90
2023-03-03T13:37:20.977Z,10.43
2023-03-03T13:39:58.677Z,8.63
2023-03-03T13:42:36.882Z,9.30
2023-03-03T13:45:19.702Z,8.47
2023-03-03T13:47:55.573Z,8.73
2023-03-03T13:50:30.054Z,9.90
2023-03-03T13:53:27.608Z,8.93
2023-03-03T13:56:03.039Z,9.13
2023-03-03T13:58:44.652Z,8.70
2023-03-03T14:01:19.376Z,9.60
2023-03-03T14:04:01.451Z,9.20
2023-03-03T14:06:31.537Z,10.03
2023-03-03T14:09:15.977Z,8.33
2023-03-03T14:11:49.559Z,7.80
2023-03-03T14:14:35.550Z,9.63
2023-03-03T14:17:11.068Z,7.67
2023-03-03T14:19:45.431Z,10.60
2023-03-03T14:22:25.584Z,9.40
2023-03-03T14:25:03.789Z,9.77
2023-03-03T14:27:38.550Z,10.07
2023-03-03T14:30:39.394Z,9.30
2023-03-03T14:33:21.725Z,11.00
2023-03-03T14:36:04.224Z,9.83
2023-03-03T14:38:51.917Z,10.00
2023-03-03T14:41:37.802Z,9.90
2023-03-03T14:44:27.312Z,9.07
2023-03-03T14:47:31.839Z,11.07
2023-03-03T14:50:01.193Z,9.97
2023-03-03T14:52:31.430Z,9.30
2023-03-03T14:55:02.144Z,9.13
2023-03-03T14:57:46.930Z,9.93
2023-03-03T15:00:36.596Z,9.97
2023-03-03T15:03:23.872Z,9.20
2023-03-03T15:05:53.667Z,8.87
2023-03-03T15:08:31.113Z,9.77
2023-03-03T15:11:15.166Z,8.23
2023-03-03T15:13:43.689Z,8.37
2023-03-03T15:16:18.894Z,7.33
2023-03-03T15:19:16.956Z,9.70
2023-03-03T15:21:57.180Z,8.63
2023-03-03T15:24:33.235Z,9.57
2023-03-03T15:27:07.137Z,8.47
2023-03-03T15:29:40.309Z,9.43
2023-03-03T15:32:17.559Z,10.57
2023-03-03T15:34:51.052Z,9.43
2023-03-03T15:37:41.956Z,10.00
2023-03-03T15:40:26.087Z,9.87
2023-03-03T15:43:04.691Z,10.57
2023-03-03T15:45:40.857Z,9.43
2023-03-03T15:48:28.626Z,9.63
2023-03-03T15:51:04.834Z,10.17
2023-03-03T15:53:58.834Z,9.80
2023-03-03T15:56:35.362Z,9.47
2023-03-03T15:59:37.882Z,10.67
2023-03-03T16:02:17.754Z,10.50
2023-03-03T16:07:50.304Z,11.67
2023-03-03T16:10:30.993Z,11.10
2023-03-03T16:13:13.403Z,11.80
2023-03-03T16:16:03.121Z,11.23
2023-03-03T16:18:50.832Z,11.60
2023-03-03T16:21:30.637Z,12.83
2023-03-03T16:24:01.601Z,11.67
2023-03-03T16:26:43.227Z,10.47
2023-03-03T16:29:40.815Z,12.83
2023-03-03T16:32:18.069Z,13.57
2023-03-03T16:34:57.884Z,14.07
2023-03-03T16:37:33.421Z,12.23
2023-03-03T16:40:11.346Z,13.93
2023-03-03T16:42:41.436Z,13.80
2023-03-03T16:45:26.070Z,12.67
2023-03-03T16:48:22.654Z,13.80
2023-03-03T16:51:13.747Z,15.67
2023-03-03T16:53:53.489Z,14.40
2023-03-03T16:56:24.971Z,14.40
2023-03-03T16:59:18.392Z,12.00
2023-03-03T17:01:52.556Z,12.93
2023-03-03T17:04:37.568Z,11.83
2023-03-03T17:07:17.473Z,11.67
2023-03-03T17:10:09.936Z,12.50
2023-03-03T17:12:53.546Z,12.82
2023-03-03T17:15:36.751Z,13.32
2023-03-03T17:18:16.152Z,12.93
2023-03-03T17:20:53.643Z,13.65
2023-03-03T17:23:43.652Z,11.93
2023-03-03T17:26:24.412Z,11.43
2023-03-03T17:29:02.110Z,10.95
2023-03-03T17:31:43.111Z,12.10
2023-03-03T17:34:25.132Z,12.32
2023-03-03T17:37:08.882Z,13.85
2023-03-03T17:39:59.409Z,11.40
2023-03-03T17:42:41.331Z,11.02
2023-03-03T17:45:11.984Z,13.05
2023-03-03T17:47:55.775Z,13.55
2023-03-03T17:50:48.989Z,12.93
2023-03-03T17:53:39.282Z,13.70
2023-03-03T17:56:18.182Z,11.10
2023-03-03T17:59:18.227Z,11.43
2023-03-03T18:02:01.666Z,11.65
2023-03-03T18:04:55.624Z,10.60
2023-03-03T18:07:48.327Z,10.57
2023-03-03T18:10:43.671Z,11.73
2023-03-03T18:13:30.921Z,11.60
2023-03-03T18:16:22.262Z,12.13
2023-03-03T18:19:19.877Z,10.65
2023-03-03T18:22:00.124Z,11.98
2023-03-03T18:24:35.006Z,11.95
2023-03-03T18:27:32.091Z,11.48
2023-03-03T18:30:24.802Z,11.55
2023-03-03T18:33:10.045Z,12.50
2023-03-03T18:35:40.798Z,11.13
2023-03-03T18:38:40.168Z,12.60
2023-03-03T18:41:13.220Z,10.18
2023-03-03T18:43:50.124Z,12.57
2023-03-03T18:46:50.270Z,11.48
2023-03-03T18:49:19.575Z,12.90
2023-03-03T18:51:51.710Z,11.13
2023-03-03T18:54:32.636Z,13.18
2023-03-03T18:57:22.554Z,11.98
2023-03-03T18:59:57.495Z,11.35
2023-03-03T19:02:53.201Z,11.00
2023-03-03T19:05:25.520Z,12.90
2023-03-03T19:07:59.330Z,11.15
2023-03-03T19:10:52.666Z,11.20
2023-03-03T19:13:42.988Z,10.90
2023-03-03T19:16:13.956Z,11.90
2023-03-03T19:19:04.478Z,12.00
2023-03-03T19:21:35.772Z,11.25
2023-03-03T19:24:06.407Z,11.65
2023-03-03T19:27:06.764Z,11.98
2023-03-03T19:30:10.033Z,11.93
2023-03-03T19:33:15.439Z,12.18
2023-03-03T19:36:06.445Z,11.30
2023-03-03T19:38:41.692Z,10.35
2023-03-03T19:41:34.643Z,11.15
2023-03-03T19:44:12.549Z,11.10
2023-03-03T19:46:57.404Z,10.95
2023-03-03T19:49:38.743Z,10.65
2023-03-03T19:52:16.621Z,11.20
2023-03-03T19:55:01.276Z,12.45
2023-03-03T19:57:43.078Z,9.77
2023-03-03T20:00:25.149Z,11.32
2023-03-03T20:03:11.800Z,13.13
2023-03-03T20:05:47.644Z,11.40
2023-03-03T20:08:22.889Z,12.65
2023-03-03T20:10:58.316Z,11.48
2023-03-03T20:13:39.677Z,12.55
2023-03-03T20:16:23.800Z,12.25
2023-03-03T20:19:16.240Z,14.00
2023-03-03T20:21:56.862Z,11.10
2023-03-03T20:24:54.288Z,12.45
2023-03-03T20:27:31.351Z,11.13
2023-03-03T20:30:09.096Z,12.60
2023-03-03T20:32:51.386Z,11.85
2023-03-03T20:35:30.327Z,10.32
2023-03-03T20:38:14.384Z,13.10
2023-03-03T20:40:52.800Z,11.80
2023-03-03T20:43:36.199Z,12.60
2023-03-03T20:46:14.566Z,13.07
2023-03-03T20:49:06.547Z,12.25
2023-03-03T20:51:44.831Z,11.55
2023-03-03T20:54:25.904Z,11.77
2023-03-03T20:56:58.398Z,13.13
2023-03-03T20:59:33.105Z,11.75
2023-03-03T21:02:12.722Z,12.75
2023-03-03T21:04:43.365Z,13.35
2023-03-03T21:07:25.092Z,12.80
2023-03-03T21:10:13.678Z,12.90
2023-03-03T21:12:42.548Z,14.30
2023-03-03T21:15:26.316Z,13.68
2023-03-03T21:18:02.276Z,16.10
2023-03-03T21:25:55.956Z,13.82
2023-03-03T21:28:28.333Z,13.35
2023-03-03T21:31:10.030Z,12.48
2023-03-03T21:33:57.328Z,12.60
2023-03-03T21:36:44.336Z,13.13
2023-03-03T21:39:23.682Z,12.57
2023-03-03T21:41:57.612Z,13.45
2023-03-03T21:44:38.180Z,14.82
2023-03-03T21:47:08.406Z,14.23
2023-03-03T21:49:38.742Z,12.70
2023-03-03T21:52:09.234Z,13.50
2023-03-03T21:54:38.657Z,14.32
2023-03-03T21:57:11.242Z,13.40
2023-03-03T21:59:40.559Z,13.70
2023-03-03T22:02:10.765Z,14.77
2023-03-03T22:04:41.134Z,14.18
2023-03-03T22:07:12.466Z,15.02
2023-03-03T22:09:42.847Z,14.55
2023-03-03T22:12:16.984Z,16.20
2023-03-03T22:14:47.524Z,14.60
2023-03-03T22:17:17.148Z,13.10
2023-03-03T22:19:46.812Z,14.40
2023-03-03T22:22:16.103Z,14.82
2023-03-03T22:24:45.789Z,14.10
2023-03-03T22:27:17.313Z,13.00
2023-03-03T22:29:46.786Z,15.80
2023-03-03T22:32:16.546Z,14.25
2023-03-03T22:34:49.555Z,15.35
2023-03-03T22:37:18.589Z,13.70
2023-03-03T22:39:48.271Z,13.90
2023-03-03T22:42:26.060Z,14.50
2023-03-03T22:44:55.207Z,14.40
2023-03-03T22:47:24.647Z,14.38
2023-03-03T22:49:54.339Z,13.20
2023-03-03T22:52:23.329Z,14.02
2023-03-03T22:54:53.984Z,13.88
2023-03-03T22:57:27.157Z,13.55
2023-03-03T22:59:57.045Z,13.75
2023-03-03T23:02:27.020Z,14.05
2023-03-03T23:05:01.669Z,12.45
2023-03-03T23:07:31.485Z,13.68
2023-03-03T23:10:00.408Z,13.65
2023-03-03T23:12:30.929Z,11.98
2023-03-03T23:15:02.396Z,11.80
2023-03-03T23:17:31.294Z,12.68
2023-03-03T23:20:04.786Z,13.27
2023-03-03T23:22:33.899Z,13.32
2023-03-03T23:25:03.595Z,12.48
2023-03-03T23:27:34.609Z,13.45
2023-03-03T23:30:04.637Z,12.90
2023-03-03T23:32:34.217Z,14.32
2023-03-03T23:35:03.720Z,15.73
2023-03-03T23:37:34.262Z,12.95
2023-03-03T23:40:03.968Z,13.40
2023-03-03T23:42:34.707Z,13.30
2023-03-03T23:45:04.558Z,13.10
2023-03-03T23:47:33.443Z,12.02
2023-03-03T23:50:02.084Z,14.18
2023-03-03T23:52:31.296Z,12.88
2023-03-03T23:55:00.723Z,14.00
2023-03-03T23:57:29.978Z,12.10
